Overview Statistics Trail Chart Weather Telemetry Raw packets
 

This is the latest recevied weather packets stored in our database for station/object SV9TNF-51. If no packets are shown the sender has not sent any weather packets the latest 10 day(s).

<< 44 45 46 47 48 49 50 >>
Time Temp. Humidity Pressure Rain* Wind** Luminosity Snow
1788371631 26.67° C 70% 1011.2 hPa 0 mm 3.58 m/s, 331° - -
1788371331 26.67° C 69% 1011.2 hPa 0 mm 2.68 m/s, 90° - -
1788371031 26.67° C 69% 1011.2 hPa 0 mm 3.13 m/s, 72° - -
1788370731 26.67° C 66% 1011.2 hPa 0 mm 4.02 m/s, 92° - -
1788370431 27.22° C 64% 1010.8 hPa 0 mm 1.34 m/s, 114° - -
1788370131 27.22° C 61% 1010.8 hPa 0 mm 0 m/s - -
1788369831 26.67° C 59% 1010.8 hPa 0 mm 0 m/s - -
1788369531 27.22° C 58% 1010.8 hPa 0 mm 2.68 m/s, 355° - -
1788369230 27.78° C 57% 1010.8 hPa 0 mm 0.89 m/s, 129° - -
1788368931 27.78° C 56% 1010.8 hPa 0 mm 0 m/s - -
1788368630 27.78° C 56% 1010.8 hPa 0 mm 1.34 m/s, 121° - -
1788368330 28.33° C 56% 1010.8 hPa 0 mm 0 m/s - -
1788368030 28.33° C 56% 1010.8 hPa 0 mm 0.45 m/s, 128° - -
1788367730 28.33° C 57% 1010.8 hPa 0 mm 0 m/s - -
1788367430 28.33° C 57% 1010.8 hPa 0 mm 0.45 m/s, 125° - -
1788367130 28.33° C 56% 1010.8 hPa 0 mm 1.34 m/s, 128° - -
1788366830 28.33° C 54% 1010.8 hPa 0 mm 2.24 m/s, 140° - -
1788366530 28.89° C 54% 1010.8 hPa 0 mm 1.34 m/s, 126° - -
1788366230 29.44° C 54% 1011.2 hPa 0 mm 0 m/s - -
1788365929 29.44° C 53% 1011.2 hPa 0 mm 1.34 m/s, 126° - -
1788365629 29.44° C 54% 1011.2 hPa 0 mm 1.34 m/s, 126° - -
1788365329 30.56° C 49% 1011.2 hPa 0 mm 0.89 m/s, 129° - -
1788365029 30.56° C 49% 1011.2 hPa 0 mm 2.68 m/s, 125° - -
1788364729 30.56° C 51% 1011.2 hPa 0 mm 0 m/s - -
1788364429 30.56° C 51% 1011.2 hPa 0 mm 5.81 m/s, 3° - -

* Rain latest hour (hover to see other rain measurements)
** Current wind speed in m/s (hover to see current wind gust speed)